createdAt,value
2023-05-22T00:00:35.874Z,66.63
2023-05-22T00:03:07.300Z,66.98
2023-05-22T00:05:39.347Z,67.46
2023-05-22T00:08:12.943Z,68.16
2023-05-22T00:10:43.451Z,68.75
2023-05-22T00:13:13.729Z,69.13
2023-05-22T00:15:44.035Z,69.16
2023-05-22T00:18:14.291Z,69.92
2023-05-22T00:20:46.695Z,70.44
2023-05-22T00:23:19.705Z,70.48
2023-05-22T00:25:50.970Z,70.82
2023-05-22T00:28:21.269Z,70.93
2023-05-22T00:30:51.562Z,70.85
2023-05-22T00:33:21.912Z,71.16
2023-05-22T00:35:52.223Z,71.32
2023-05-22T00:38:36.780Z,71.59
2023-05-22T00:41:09.005Z,71.35
2023-05-22T00:43:41.494Z,72.67
2023-05-22T00:46:12.885Z,72.74
2023-05-22T00:48:43.251Z,73.03
2023-05-22T00:51:13.982Z,73.02
2023-05-22T00:53:47.258Z,73.39
2023-05-22T00:56:18.784Z,73.21
2023-05-22T00:58:49.154Z,73.80
2023-05-22T01:01:20.011Z,73.84
2023-05-22T01:03:51.017Z,74.44
2023-05-22T01:06:21.803Z,74.32
2023-05-22T01:08:54.702Z,74.81
2023-05-22T01:11:31.454Z,75.03
2023-05-22T01:14:11.049Z,75.33
2023-05-22T01:16:52.069Z,75.80
2023-05-22T01:19:50.824Z,75.78
2023-05-22T01:22:38.954Z,76.51
2023-05-22T01:25:39.393Z,75.87
2023-05-22T01:28:29.111Z,76.14
2023-05-22T01:31:05.224Z,76.38
2023-05-22T01:33:40.458Z,76.72
2023-05-22T01:36:12.377Z,77.37
2023-05-22T01:38:44.434Z,77.73
2023-05-22T01:41:15.165Z,77.00
2023-05-22T01:43:45.680Z,78.21
2023-05-22T01:46:18.940Z,77.96
2023-05-22T01:48:49.273Z,78.67
2023-05-22T01:51:28.737Z,78.31
2023-05-22T01:54:14.807Z,79.44
2023-05-22T01:56:55.132Z,79.38
2023-05-22T01:59:37.728Z,79.12
2023-05-22T02:02:14.221Z,79.47
2023-05-22T02:04:49.610Z,78.76
2023-05-22T02:07:23.053Z,79.18
2023-05-22T02:09:55.262Z,79.42
2023-05-22T02:12:26.695Z,79.41
2023-05-22T02:14:57.784Z,80.11
2023-05-22T02:17:30.956Z,80.47
2023-05-22T02:20:01.317Z,80.50
2023-05-22T02:22:32.113Z,80.87
2023-05-22T02:25:02.370Z,80.52
2023-05-22T02:27:32.818Z,80.36
2023-05-22T02:30:03.461Z,80.35
2023-05-22T02:32:36.498Z,80.27
2023-05-22T02:35:07.528Z,81.44
2023-05-22T02:37:38.176Z,81.48
2023-05-22T02:40:10.503Z,81.87
2023-05-22T02:42:40.899Z,82.22
2023-05-22T02:45:13.384Z,81.82
2023-05-22T02:47:46.378Z,81.90
2023-05-22T02:50:16.768Z,81.93
2023-05-22T02:52:47.034Z,81.26
2023-05-22T02:55:17.648Z,81.09
2023-05-22T02:57:47.971Z,82.05
2023-05-22T03:00:19.904Z,81.72
2023-05-22T03:02:52.815Z,81.69
2023-05-22T03:05:23.453Z,82.28
2023-05-22T03:07:53.741Z,82.23
2023-05-22T03:10:24.031Z,81.51
2023-05-22T03:12:54.790Z,83.42
2023-05-22T03:15:25.141Z,82.98
2023-05-22T03:17:58.014Z,82.94
2023-05-22T03:20:28.472Z,82.63
2023-05-22T03:22:58.765Z,82.99
2023-05-22T03:25:29.069Z,83.97
2023-05-22T03:27:59.340Z,82.81
2023-05-22T03:30:29.714Z,83.20
2023-05-22T03:33:02.665Z,82.95
2023-05-22T03:35:33.020Z,84.06
2023-05-22T03:38:03.327Z,83.88
2023-05-22T03:40:33.603Z,84.06
2023-05-22T03:43:03.955Z,84.24
2023-05-22T03:45:34.333Z,83.21
2023-05-22T03:48:07.764Z,84.95
2023-05-22T03:50:38.434Z,85.01
2023-05-22T03:53:08.929Z,83.97
2023-05-22T03:55:39.633Z,83.80
2023-05-22T03:58:10.251Z,85.08
2023-05-22T04:00:41.270Z,85.69
2023-05-22T04:03:14.895Z,85.45
2023-05-22T04:05:45.381Z,85.53
2023-05-22T04:08:15.706Z,85.74
2023-05-22T04:10:46.799Z,86.13
2023-05-22T04:13:17.714Z,85.61
2023-05-22T04:15:48.096Z,85.70
2023-05-22T04:18:20.969Z,85.60
2023-05-22T04:20:52.176Z,86.23
2023-05-22T04:23:22.931Z,86.07
2023-05-22T04:25:53.560Z,85.82
2023-05-22T04:28:26.956Z,86.00
2023-05-22T04:30:57.847Z,86.44
2023-05-22T04:33:34.665Z,86.48
2023-05-22T04:36:05.353Z,86.59
2023-05-22T04:38:37.387Z,87.05
2023-05-22T04:41:08.876Z,85.70
2023-05-22T04:43:40.233Z,86.38
2023-05-22T04:46:10.783Z,85.49
2023-05-22T04:48:43.700Z,85.01
2023-05-22T04:51:14.588Z,85.09
2023-05-22T04:53:46.454Z,84.88
2023-05-22T04:56:27.931Z,84.98
2023-05-22T04:59:05.773Z,85.44
2023-05-22T05:01:36.139Z,85.46
2023-05-22T05:04:09.096Z,84.97
2023-05-22T05:06:43.531Z,85.49
2023-05-22T05:09:13.928Z,85.25
2023-05-22T05:11:44.215Z,85.66
2023-05-22T05:14:14.490Z,84.65
2023-05-22T05:16:44.796Z,83.34
2023-05-22T05:19:18.114Z,81.36
2023-05-22T05:21:48.848Z,79.06
2023-05-22T05:24:20.339Z,77.00
2023-05-22T05:26:50.685Z,75.01
2023-05-22T05:29:21.039Z,72.72
2023-05-22T05:31:51.640Z,70.52
2023-05-22T05:34:24.523Z,68.60
2023-05-22T05:36:57.507Z,66.86
2023-05-22T05:39:27.843Z,64.22
2023-05-22T05:41:58.176Z,63.03
2023-05-22T05:44:28.558Z,61.57
2023-05-22T05:46:58.870Z,60.35
2023-05-22T05:49:33.053Z,58.86
2023-05-22T05:52:05.360Z,58.17
2023-05-22T05:54:35.612Z,56.96
2023-05-22T05:57:06.228Z,55.36
2023-05-22T05:59:36.509Z,55.04
2023-05-22T06:02:06.937Z,54.30
2023-05-22T06:04:39.809Z,53.30
2023-05-22T06:07:10.112Z,53.33
2023-05-22T06:09:40.935Z,52.44
2023-05-22T06:12:13.399Z,51.50
2023-05-22T06:14:43.684Z,50.65
2023-05-22T06:17:14.019Z,50.09
2023-05-22T06:19:46.926Z,50.20
2023-05-22T06:22:17.333Z,49.77
2023-05-22T06:24:47.589Z,49.74
2023-05-22T06:27:17.893Z,50.11
2023-05-22T06:29:48.221Z,50.22
2023-05-22T06:32:18.804Z,49.84
2023-05-22T06:34:52.764Z,49.28
2023-05-22T06:37:23.056Z,48.83
2023-05-22T06:39:53.319Z,48.39
2023-05-22T06:42:23.670Z,47.09
2023-05-22T06:44:54.003Z,46.97
2023-05-22T06:47:24.453Z,46.41
2023-05-22T06:49:57.372Z,44.30
2023-05-22T06:52:27.704Z,43.75
2023-05-22T06:55:04.586Z,43.74
2023-05-22T06:57:35.213Z,44.37
2023-05-22T07:00:07.897Z,43.85
2023-05-22T07:02:38.357Z,44.20
2023-05-22T07:05:11.991Z,44.25
2023-05-22T07:07:42.272Z,44.42
2023-05-22T07:10:13.782Z,44.58
2023-05-22T07:12:44.069Z,45.29
2023-05-22T07:15:15.057Z,45.02
2023-05-22T07:17:45.450Z,44.93
2023-05-22T07:20:18.834Z,45.30
2023-05-22T07:22:49.136Z,45.09
2023-05-22T07:25:20.250Z,45.21
2023-05-22T07:27:50.585Z,45.28
2023-05-22T07:30:20.976Z,44.36
2023-05-22T07:32:51.671Z,44.73
2023-05-22T07:35:24.764Z,44.61
2023-05-22T07:37:55.123Z,44.57
2023-05-22T07:40:26.570Z,45.09
2023-05-22T07:42:57.351Z,45.38
2023-05-22T07:45:27.632Z,45.78
2023-05-22T07:47:59.292Z,45.32
2023-05-22T07:50:33.420Z,45.34
2023-05-22T07:53:04.816Z,45.43
2023-05-22T07:55:35.314Z,45.10
2023-05-22T07:58:05.951Z,44.75
2023-05-22T08:00:36.285Z,45.10
2023-05-22T08:03:07.041Z,45.77
2023-05-22T08:05:40.057Z,46.90
2023-05-22T08:08:10.618Z,46.67
2023-05-22T08:10:58.132Z,47.03
2023-05-22T08:13:31.575Z,48.34
2023-05-22T08:16:01.905Z,49.14
2023-05-22T08:18:32.316Z,49.08
2023-05-22T08:21:05.195Z,48.41
2023-05-22T08:23:36.543Z,49.21
2023-05-22T08:26:08.994Z,50.47
2023-05-22T08:28:42.303Z,50.12
2023-05-22T08:31:12.653Z,49.81
2023-05-22T08:33:43.382Z,50.60
2023-05-22T08:36:16.586Z,51.04
2023-05-22T08:38:46.855Z,51.52
2023-05-22T08:41:17.620Z,51.71
2023-05-22T08:43:47.995Z,51.95
2023-05-22T08:46:20.374Z,51.58
2023-05-22T08:48:52.386Z,51.75
2023-05-22T08:51:31.765Z,51.18
2023-05-22T08:54:04.213Z,51.10
2023-05-22T08:56:37.309Z,51.42
2023-05-22T08:59:11.551Z,50.94
2023-05-22T09:01:41.934Z,51.21
2023-05-22T09:04:12.364Z,50.82
2023-05-22T09:06:45.373Z,51.03
2023-05-22T09:09:15.644Z,50.34
2023-05-22T09:11:45.959Z,51.11
2023-05-22T09:14:16.351Z,51.32
2023-05-22T09:16:50.001Z,50.87
2023-05-22T09:19:20.860Z,50.75
2023-05-22T09:21:55.216Z,51.64
2023-05-22T09:24:25.559Z,52.89
2023-05-22T09:26:56.146Z,50.85
2023-05-22T09:29:26.639Z,50.13
2023-05-22T09:31:57.830Z,50.53
2023-05-22T09:34:33.185Z,50.51
2023-05-22T09:37:09.716Z,50.19
2023-05-22T09:39:44.120Z,49.80
2023-05-22T09:42:19.513Z,50.11
2023-05-22T09:44:52.497Z,50.09
2023-05-22T09:47:22.901Z,49.74
2023-05-22T09:49:53.245Z,49.00
2023-05-22T09:52:27.729Z,49.09
2023-05-22T09:54:59.971Z,48.95
2023-05-22T09:57:33.030Z,49.44
2023-05-22T10:00:11.878Z,49.79
2023-05-22T10:02:47.846Z,50.21
2023-05-22T10:05:22.143Z,50.94
2023-05-22T10:08:00.253Z,51.01
2023-05-22T10:10:31.624Z,50.70
2023-05-22T10:13:06.785Z,50.30
2023-05-22T10:15:38.216Z,50.17
2023-05-22T10:18:09.426Z,50.13
2023-05-22T10:20:40.518Z,49.80
2023-05-22T10:23:13.910Z,49.15
2023-05-22T10:25:44.442Z,49.83
2023-05-22T10:28:18.296Z,49.87
2023-05-22T10:30:56.349Z,49.32
2023-05-22T10:33:32.389Z,47.80
2023-05-22T10:36:09.265Z,47.37
2023-05-22T10:39:07.607Z,47.67
2023-05-22T10:41:38.844Z,47.20
2023-05-22T10:44:10.014Z,48.04
2023-05-22T10:46:40.485Z,48.58
2023-05-22T10:49:10.918Z,47.82
2023-05-22T10:51:41.267Z,47.73
2023-05-22T10:54:14.143Z,48.24
2023-05-22T10:56:44.462Z,47.63
2023-05-22T10:59:14.738Z,48.00
2023-05-22T11:01:45.188Z,48.38
2023-05-22T11:04:16.293Z,47.86
2023-05-22T11:06:49.358Z,48.64
2023-05-22T11:09:32.369Z,47.57
2023-05-22T11:12:21.593Z,47.81
2023-05-22T11:14:54.765Z,47.75
2023-05-22T11:17:27.229Z,48.12
2023-05-22T11:20:06.201Z,47.06
2023-05-22T11:22:41.401Z,47.06
2023-05-22T11:25:19.170Z,45.96
2023-05-22T11:27:51.730Z,46.48
2023-05-22T11:30:22.339Z,46.24
2023-05-22T11:32:52.697Z,45.62
2023-05-22T11:35:24.666Z,45.99
2023-05-22T11:37:56.665Z,46.44
2023-05-22T11:40:31.288Z,45.16
2023-05-22T11:43:02.089Z,45.79
2023-05-22T11:45:32.360Z,45.43
2023-05-22T11:48:02.772Z,47.68
2023-05-22T11:50:41.781Z,46.62
2023-05-22T11:53:13.193Z,46.36
2023-05-22T11:55:46.234Z,46.10
2023-05-22T11:58:18.221Z,46.23
2023-05-22T12:00:48.565Z,47.39
2023-05-22T12:03:18.934Z,48.49
2023-05-22T12:05:49.791Z,48.23
2023-05-22T12:08:20.826Z,48.70
2023-05-22T12:10:54.484Z,48.97
2023-05-22T12:13:29.687Z,48.40
2023-05-22T12:16:02.132Z,49.43
2023-05-22T12:18:39.405Z,49.81
2023-05-22T12:21:10.623Z,49.98
2023-05-22T12:23:51.995Z,48.24
2023-05-22T12:26:25.055Z,48.00
2023-05-22T12:28:56.556Z,47.07
2023-05-22T12:31:27.112Z,46.63
2023-05-22T12:33:58.061Z,47.46
2023-05-22T12:36:37.248Z,48.24
2023-05-22T12:39:12.177Z,47.98
2023-05-22T12:41:45.259Z,48.63
2023-05-22T12:44:19.262Z,48.91
2023-05-22T12:46:50.410Z,48.35
2023-05-22T12:49:21.018Z,46.48
2023-05-22T12:51:51.425Z,47.23
2023-05-22T12:54:21.771Z,46.29
2023-05-22T12:56:54.636Z,47.17
2023-05-22T12:59:24.911Z,46.61
2023-05-22T13:01:55.451Z,46.25
2023-05-22T13:04:26.024Z,46.87
2023-05-22T13:06:56.454Z,46.19
2023-05-22T13:09:26.835Z,46.87
2023-05-22T13:12:00.371Z,45.96
2023-05-22T13:14:30.750Z,47.40
2023-05-22T13:17:01.052Z,46.93
2023-05-22T13:19:31.627Z,46.52
2023-05-22T13:22:02.049Z,47.63
2023-05-22T13:24:32.516Z,48.68
2023-05-22T13:27:05.472Z,47.68
2023-05-22T13:29:36.050Z,46.98
2023-05-22T13:32:06.763Z,47.66
2023-05-22T13:34:37.162Z,47.27
2023-05-22T13:37:08.199Z,47.70
2023-05-22T13:39:38.660Z,48.06
2023-05-22T13:42:12.081Z,48.73
2023-05-22T13:44:42.422Z,48.60
2023-05-22T13:47:13.091Z,48.23
2023-05-22T13:49:43.564Z,49.02
2023-05-22T13:52:13.949Z,49.44
2023-05-22T13:54:44.319Z,49.88
2023-05-22T13:57:17.401Z,49.61
2023-05-22T13:59:47.706Z,50.70
2023-05-22T14:02:19.945Z,49.76
2023-05-22T14:04:51.553Z,49.63
2023-05-22T14:07:22.600Z,51.00
2023-05-22T14:09:52.914Z,50.56
2023-05-22T14:12:25.936Z,51.20
2023-05-22T14:14:56.395Z,50.30
2023-05-22T14:17:27.295Z,50.30
2023-05-22T14:19:59.268Z,50.41
2023-05-22T14:22:29.613Z,49.96
2023-05-22T14:24:59.984Z,50.45
2023-05-22T14:27:33.010Z,50.35
2023-05-22T14:30:03.344Z,50.80
2023-05-22T14:32:33.636Z,51.02
2023-05-22T14:35:03.952Z,50.90
2023-05-22T14:37:34.253Z,50.79
2023-05-22T14:40:04.648Z,50.50
2023-05-22T14:42:37.946Z,50.35
2023-05-22T14:45:09.711Z,50.36
2023-05-22T14:47:41.046Z,50.17
2023-05-22T14:50:18.895Z,50.99
2023-05-22T14:52:50.613Z,50.54
2023-05-22T14:55:22.001Z,49.97
2023-05-22T14:58:00.212Z,50.07
2023-05-22T15:00:33.997Z,50.53
2023-05-22T15:03:04.456Z,50.89
2023-05-22T15:05:34.976Z,50.24
2023-05-22T15:08:05.282Z,50.12
2023-05-22T15:10:35.616Z,49.34
2023-05-22T15:13:08.603Z,49.96
2023-05-22T15:15:39.149Z,49.78
2023-05-22T15:18:09.945Z,50.73
2023-05-22T15:20:40.247Z,50.37
2023-05-22T15:23:10.549Z,51.26
2023-05-22T15:25:41.414Z,51.41
2023-05-22T15:28:14.706Z,51.43
2023-05-22T15:30:45.028Z,51.65
2023-05-22T15:33:15.436Z,51.49
2023-05-22T15:35:47.110Z,51.34
2023-05-22T15:38:17.590Z,52.85
2023-05-22T15:40:47.960Z,52.21
2023-05-22T15:43:20.869Z,51.73
2023-05-22T15:45:51.555Z,52.27
2023-05-22T15:48:21.964Z,52.52
2023-05-22T15:50:52.365Z,52.77
2023-05-22T15:53:23.088Z,52.90
2023-05-22T15:55:53.779Z,53.03
2023-05-22T15:58:26.792Z,52.96
2023-05-22T16:00:57.751Z,53.21
2023-05-22T16:03:28.250Z,53.48
2023-05-22T16:05:58.687Z,52.51
2023-05-22T16:08:29.066Z,53.29
2023-05-22T16:11:01.066Z,53.22
2023-05-22T16:13:34.160Z,53.89
2023-05-22T16:16:06.259Z,54.21
2023-05-22T16:18:36.644Z,54.31
2023-05-22T16:21:07.625Z,53.91
2023-05-22T16:23:37.998Z,53.22
2023-05-22T16:26:08.703Z,53.57
2023-05-22T16:28:41.664Z,52.76
2023-05-22T16:31:13.141Z,52.81
2023-05-22T16:33:43.549Z,52.27
2023-05-22T16:36:14.084Z,52.42
2023-05-22T16:38:45.413Z,53.09
2023-05-22T16:41:15.800Z,52.78
2023-05-22T16:43:48.718Z,53.52
2023-05-22T16:46:19.972Z,53.18
2023-05-22T16:48:50.664Z,52.28
2023-05-22T16:51:21.108Z,52.12
2023-05-22T16:53:53.036Z,51.07
2023-05-22T16:56:23.367Z,51.05
2023-05-22T16:58:56.461Z,50.28
2023-05-22T17:01:27.635Z,50.58
2023-05-22T17:03:58.345Z,50.11
2023-05-22T17:06:29.528Z,50.01
2023-05-22T17:08:59.847Z,49.78
2023-05-22T17:11:30.354Z,50.18
2023-05-22T17:14:03.310Z,50.38
2023-05-22T17:16:34.472Z,50.48
2023-05-22T17:19:04.891Z,50.72
2023-05-22T17:21:35.464Z,51.68
2023-05-22T17:24:05.752Z,52.15
2023-05-22T17:26:36.264Z,52.38
2023-05-22T17:29:11.198Z,52.51
2023-05-22T17:31:41.573Z,52.73
2023-05-22T17:34:11.882Z,53.11
2023-05-22T17:36:43.998Z,53.45
2023-05-22T17:39:15.218Z,53.94
2023-05-22T17:41:45.563Z,54.21
2023-05-22T17:44:18.559Z,54.17
2023-05-22T17:46:49.692Z,54.27
2023-05-22T17:49:20.031Z,53.96
2023-05-22T17:51:50.423Z,53.66
2023-05-22T17:54:20.796Z,54.40
2023-05-22T17:56:51.248Z,54.56
2023-05-22T17:59:24.218Z,55.40
2023-05-22T18:01:54.582Z,55.10
2023-05-22T18:04:24.945Z,56.32
2023-05-22T18:06:55.586Z,56.23
2023-05-22T18:09:25.955Z,56.38
2023-05-22T18:11:56.350Z,56.18
2023-05-22T18:14:29.627Z,56.60
2023-05-22T18:16:59.981Z,56.93
2023-05-22T18:19:30.443Z,57.43
2023-05-22T18:22:00.912Z,58.18
2023-05-22T18:24:32.936Z,58.42
2023-05-22T18:27:03.258Z,58.75
2023-05-22T18:29:36.174Z,58.64
2023-05-22T18:32:09.624Z,58.84
2023-05-22T18:34:40.510Z,58.72
2023-05-22T18:37:10.939Z,58.90
2023-05-22T18:39:41.291Z,58.93
2023-05-22T18:42:11.950Z,59.23
2023-05-22T18:44:46.803Z,59.32
2023-05-22T18:47:18.697Z,59.37
2023-05-22T18:49:49.002Z,59.51
2023-05-22T18:52:19.574Z,59.45
2023-05-22T18:54:50.003Z,59.26
2023-05-22T18:57:20.509Z,59.38
2023-05-22T18:59:53.375Z,60.22
2023-05-22T19:02:24.151Z,60.19
2023-05-22T19:04:54.531Z,60.25
2023-05-22T19:07:25.210Z,60.18
2023-05-22T19:09:55.500Z,60.20
2023-05-22T19:12:28.564Z,60.24
2023-05-22T19:15:03.317Z,60.16
2023-05-22T19:17:33.694Z,60.70
2023-05-22T19:20:07.739Z,60.81
2023-05-22T19:22:38.162Z,61.16
2023-05-22T19:25:10.180Z,61.27
2023-05-22T19:27:40.646Z,61.96
2023-05-22T19:30:16.602Z,61.99
2023-05-22T19:32:47.003Z,62.23
2023-05-22T19:35:17.650Z,62.69
2023-05-22T19:37:48.005Z,62.67
2023-05-22T19:40:18.368Z,62.47
2023-05-22T19:42:48.708Z,62.78
2023-05-22T19:45:21.641Z,62.77
2023-05-22T19:47:51.976Z,63.06
2023-05-22T19:50:22.568Z,63.21
2023-05-22T19:52:52.977Z,63.71
2023-05-22T19:55:23.554Z,63.97
2023-05-22T19:57:53.876Z,64.95
2023-05-22T20:00:28.917Z,65.16
2023-05-22T20:02:59.373Z,65.26
2023-05-22T20:05:29.857Z,65.54
2023-05-22T20:08:01.944Z,66.38
2023-05-22T20:10:33.302Z,66.39
2023-05-22T20:13:05.111Z,66.68
2023-05-22T20:15:38.490Z,66.72
2023-05-22T20:18:09.230Z,66.82
2023-05-22T20:20:39.489Z,67.00
2023-05-22T20:23:13.057Z,67.08
2023-05-22T20:25:43.441Z,67.50
2023-05-22T20:28:13.863Z,67.48
2023-05-22T20:30:46.773Z,67.61
2023-05-22T20:33:17.180Z,67.48
2023-05-22T20:35:50.245Z,67.52
2023-05-22T20:38:22.695Z,67.81
2023-05-22T20:40:53.814Z,68.09
2023-05-22T20:43:26.434Z,68.41
2023-05-22T20:45:59.434Z,68.65
2023-05-22T20:48:29.837Z,68.39
2023-05-22T20:51:00.253Z,68.46
2023-05-22T20:53:30.613Z,68.62
2023-05-22T20:56:00.920Z,68.74
2023-05-22T20:58:31.234Z,68.55
2023-05-22T21:01:04.461Z,68.50
2023-05-22T21:03:34.957Z,68.73
2023-05-22T21:06:07.020Z,68.88
2023-05-22T21:08:38.361Z,68.92
2023-05-22T21:11:09.835Z,69.03
2023-05-22T21:13:40.209Z,69.42
2023-05-22T21:16:13.261Z,69.50
2023-05-22T21:18:43.787Z,69.59
2023-05-22T21:21:14.177Z,69.62
2023-05-22T21:23:44.500Z,69.81
2023-05-22T21:26:14.865Z,69.82
2023-05-22T21:28:45.859Z,70.13
2023-05-22T21:31:18.776Z,70.15
2023-05-22T21:33:49.149Z,70.45
2023-05-22T21:36:19.651Z,70.76
2023-05-22T21:38:50.156Z,70.65
2023-05-22T21:41:20.624Z,70.85
2023-05-22T21:43:50.954Z,71.23
2023-05-22T21:46:25.286Z,71.18
2023-05-22T21:48:56.392Z,71.39
2023-05-22T21:51:26.690Z,71.80
2023-05-22T21:53:57.015Z,72.04
2023-05-22T21:56:27.336Z,72.39
2023-05-22T21:58:57.688Z,73.18
2023-05-22T22:01:30.820Z,72.62
2023-05-22T22:04:01.445Z,72.89
2023-05-22T22:06:31.858Z,73.32
2023-05-22T22:09:03.866Z,73.42
2023-05-22T22:11:34.150Z,73.22
2023-05-22T22:14:04.575Z,73.30
2023-05-22T22:16:40.830Z,73.93
2023-05-22T22:19:11.868Z,74.08
2023-05-22T22:21:42.377Z,74.41
2023-05-22T22:24:13.409Z,74.46
2023-05-22T22:26:43.728Z,74.64
2023-05-22T22:29:14.242Z,75.23
2023-05-22T22:31:47.226Z,75.54
2023-05-22T22:34:17.803Z,76.11
2023-05-22T22:36:48.174Z,75.98
2023-05-22T22:39:18.602Z,76.85
2023-05-22T22:41:48.872Z,76.57
2023-05-22T22:44:19.141Z,76.71
2023-05-22T22:46:52.607Z,77.48
2023-05-22T22:49:22.896Z,77.06
2023-05-22T22:51:53.830Z,77.55
2023-05-22T22:54:24.141Z,77.50
2023-05-22T22:56:54.731Z,77.41
2023-05-22T22:59:25.178Z,77.87
2023-05-22T23:01:58.158Z,78.18
2023-05-22T23:04:28.777Z,77.95
2023-05-22T23:07:00.002Z,77.94
2023-05-22T23:09:30.366Z,78.20
2023-05-22T23:12:00.677Z,78.42
2023-05-22T23:14:31.024Z,78.22
2023-05-22T23:17:03.916Z,78.63
2023-05-22T23:19:34.206Z,78.86
2023-05-22T23:22:04.554Z,78.65
2023-05-22T23:24:34.860Z,78.59
2023-05-22T23:27:05.192Z,79.52
2023-05-22T23:29:35.716Z,79.31
2023-05-22T23:32:09.118Z,79.21
2023-05-22T23:34:39.416Z,79.51
2023-05-22T23:37:09.731Z,79.70
2023-05-22T23:39:40.085Z,79.65
2023-05-22T23:42:12.232Z,79.82
2023-05-22T23:44:42.622Z,80.46
2023-05-22T23:47:17.028Z,79.70
2023-05-22T23:49:47.473Z,79.90
2023-05-22T23:52:17.778Z,79.98
2023-05-22T23:54:48.477Z,79.76
2023-05-22T23:57:18.825Z,80.45
2023-05-22T23:59:49.127Z,80.59
